Time;durP1;ratioP1;P1;durP2;ratioP2;P2;SDS_P1;SDS_P2;PMS_P1;PMS_P2;Temp;Humidity;BMP_temperature;BMP_pressure;BME280_temperature;BME280_humidity;BME280_pressure;Samples;Min_cycle;Max_cycle;Signal;HPM_P1;HPM_P2
2022/06/23 00:00:42;;;;;;;;;;;563.60;2432.00;;;;;;5072418;28;19940;-57
2022/06/23 00:03:07;;;;;;;;;;;563.40;2432.00;;;;;;5071887;28;19951;-56
2022/06/23 00:05:35;;;;;;;;;;;563.40;2432.00;;;;;;5072282;28;19904;-60
2022/06/23 00:08:01;;;;;;;;;;;563.30;2432.00;;;;;;5072247;28;19980;-57
2022/06/23 00:10:32;;;;;;;;;;;563.30;2432.00;;;;;;5071952;28;20407;-56
2022/06/23 00:12:58;;;;;;;;;;;563.30;2432.00;;;;;;5071785;28;19953;-57
2022/06/23 00:15:25;;;;;;;;;;;563.20;2432.00;;;;;;5071840;28;19971;-57
2022/06/23 00:17:59;;;;;;;;;;;563.20;2432.00;;;;;;5072034;28;19911;-57
2022/06/23 00:20:27;;;;;;;;;;;538.50;2406.40;;;;;;5071914;28;19912;-57
2022/06/23 00:22:54;;;;;;;;;;;538.40;2406.40;;;;;;5071784;28;19904;-59
2022/06/23 00:25:39;;;;;;;;;;;538.40;2406.40;;;;;;5071740;28;19904;-57
2022/06/23 00:28:05;;;;;;;;;;;538.40;2406.40;;;;;;5071695;28;19959;-59
2022/06/23 00:30:41;;;;;;;;;;;538.30;2406.40;;;;;;5071636;28;19908;-56
2022/06/23 00:33:07;;;;;;;;;;;538.30;2406.40;;;;;;5071305;28;19908;-56
2022/06/23 00:35:34;;;;;;;;;;;538.40;2406.40;;;;;;5071451;28;19909;-55
2022/06/23 00:37:59;;;;;;;;;;;538.40;2406.40;;;;;;5071287;28;19951;-60
2022/06/23 00:40:26;;;;;;;;;;;538.40;2406.40;;;;;;5071706;28;19904;-57
2022/06/23 00:42:51;;;;;;;;;;;538.40;2406.40;;;;;;5071639;28;20368;-59
2022/06/23 00:45:20;;;;;;;;;;;538.40;2406.40;;;;;;5071331;28;20003;-58
2022/06/23 00:48:01;;;;;;;;;;;538.40;2406.40;;;;;;5071469;28;19905;-57
2022/06/23 00:50:34;;;;;;;;;;;538.40;2406.40;;;;;;5070993;28;20377;-57
2022/06/23 00:53:02;;;;;;;;;;;538.40;2406.40;;;;;;5070965;28;19919;-56
2022/06/23 00:55:34;;;;;;;;;;;538.40;2406.40;;;;;;5070985;28;19916;-57
2022/06/23 00:58:03;;;;;;;;;;;538.30;2406.40;;;;;;5070703;28;20347;-57
2022/06/23 01:00:34;;;;;;;;;;;538.00;2406.40;;;;;;5071032;28;19970;-57
2022/06/23 01:03:11;;;;;;;;;;;538.00;2406.40;;;;;;5071013;28;19904;-56
2022/06/23 01:05:37;;;;;;;;;;;538.00;2406.40;;;;;;5070804;28;21026;-58
2022/06/23 01:08:13;;;;;;;;;;;538.00;2406.40;;;;;;5071044;28;19904;-56
2022/06/23 01:10:47;;;;;;;;;;;538.00;2406.40;;;;;;5070800;28;19911;-56
2022/06/23 01:13:26;;;;;;;;;;;538.10;2406.40;;;;;;5070383;28;19944;-56
2022/06/23 01:16:15;;;;;;;;;;;538.20;2406.40;;;;;;5070951;28;19908;-56
2022/06/23 01:19:03;;;;;;;;;;;538.10;2406.40;;;;;;4989408;28;19953;-55
2022/06/23 01:21:32;;;;;;;;;;;538.10;2406.40;;;;;;4950552;29;19907;-58
2022/06/23 01:24:06;;;;;;;;;;;538.10;2406.40;;;;;;4950491;28;20486;-56
2022/06/23 01:27:04;;;;;;;;;;;538.00;2406.40;;;;;;4950796;29;20362;-58
2022/06/23 01:29:32;;;;;;;;;;;538.10;2406.40;;;;;;4929355;29;19922;-60
2022/06/23 01:32:06;;;;;;;;;;;538.10;2406.40;;;;;;4950398;28;19907;-61
2022/06/23 01:34:50;;;;;;;;;;;538.10;2406.40;;;;;;4950422;29;19915;-55
2022/06/23 01:37:16;;;;;;;;;;;538.00;2406.40;;;;;;4950567;29;19910;-60
2022/06/23 01:39:47;;;;;;;;;;;537.90;2406.40;;;;;;4950566;29;19911;-58
2022/06/23 01:42:12;;;;;;;;;;;537.90;2406.40;;;;;;4950474;28;19921;-57
2022/06/23 01:44:48;;;;;;;;;;;537.90;2406.40;;;;;;4950315;29;19906;-57
2022/06/23 01:47:28;;;;;;;;;;;537.80;2406.40;;;;;;4950429;28;19907;-57
2022/06/23 01:49:58;;;;;;;;;;;537.60;2406.40;;;;;;4950294;29;20357;-58
2022/06/23 01:52:24;;;;;;;;;;;512.90;2380.80;;;;;;4950410;28;20379;-58
2022/06/23 01:54:56;;;;;;;;;;;512.90;2380.80;;;;;;4955919;28;19914;-56
2022/06/23 01:57:42;;;;;;;;;;;512.90;2380.80;;;;;;4992040;28;19997;-57
2022/06/23 02:00:07;;;;;;;;;;;512.90;2380.80;;;;;;5070041;28;19930;-59
2022/06/23 02:02:45;;;;;;;;;;;512.90;2380.80;;;;;;5070592;28;19905;-60
2022/06/23 02:05:21;;;;;;;;;;;537.60;2406.40;;;;;;5070136;28;19908;-60
2022/06/23 02:07:55;;;;;;;;;;;537.80;2406.40;;;;;;5070063;28;20354;-59
2022/06/23 02:10:20;;;;;;;;;;;537.60;2406.40;;;;;;5070131;28;19904;-60
2022/06/23 02:12:48;;;;;;;;;;;537.80;2406.40;;;;;;5070048;28;19904;-59
2022/06/23 02:15:23;;;;;;;;;;;538.00;2406.40;;;;;;5070308;28;19920;-59
2022/06/23 02:17:58;;;;;;;;;;;538.20;2406.40;;;;;;5070167;28;20390;-59
2022/06/23 02:20:32;;;;;;;;;;;538.30;2406.40;;;;;;5069972;28;19904;-57
2022/06/23 02:23:11;;;;;;;;;;;538.40;2406.40;;;;;;5070021;28;19979;-60
2022/06/23 02:25:40;;;;;;;;;;;538.50;2406.40;;;;;;5072963;28;19911;-58
2022/06/23 02:28:12;;;;;;;;;;;538.50;2406.40;;;;;;5073693;28;20346;-59
2022/06/23 02:30:40;;;;;;;;;;;538.50;2406.40;;;;;;5073860;28;20282;-60
2022/06/23 02:33:13;;;;;;;;;;;538.50;2406.40;;;;;;5073944;28;19911;-58
2022/06/23 02:35:41;;;;;;;;;;;563.20;2432.00;;;;;;5055670;28;20418;-59
2022/06/23 02:38:26;;;;;;;;;;;563.20;2432.00;;;;;;5073779;28;19913;-58
2022/06/23 02:40:54;;;;;;;;;;;563.20;2432.00;;;;;;5073873;28;20362;-59
2022/06/23 02:43:20;;;;;;;;;;;563.20;2432.00;;;;;;5073678;28;19904;-59
2022/06/23 02:46:04;;;;;;;;;;;538.50;2406.40;;;;;;5073728;28;20832;-60
2022/06/23 02:48:29;;;;;;;;;;;538.50;2406.40;;;;;;5073621;28;19927;-58
2022/06/23 02:50:58;;;;;;;;;;;563.20;2432.00;;;;;;5073427;28;20243;-58
2022/06/23 02:53:35;;;;;;;;;;;538.50;2406.40;;;;;;5073497;28;19904;-58
2022/06/23 02:56:19;;;;;;;;;;;563.20;2432.00;;;;;;5073433;28;19915;-57
2022/06/23 02:58:54;;;;;;;;;;;538.50;2406.40;;;;;;5073204;28;20418;-59
2022/06/23 03:01:29;;;;;;;;;;;538.50;2406.40;;;;;;5073590;28;19909;-59
2022/06/23 03:04:00;;;;;;;;;;;563.20;2432.00;;;;;;5073595;28;19927;-57
2022/06/23 03:06:32;;;;;;;;;;;563.20;2432.00;;;;;;5073237;28;19911;-61
2022/06/23 03:09:02;;;;;;;;;;;563.20;2432.00;;;;;;5073118;28;19930;-58
2022/06/23 03:14:35;;;;;;;;;;;563.20;2432.00;;;;;;5073178;28;20380;-58
2022/06/23 03:17:04;;;;;;;;;;;563.20;2432.00;;;;;;5058702;28;19908;-61
2022/06/23 03:19:42;;;;;;;;;;;563.20;2432.00;;;;;;5072852;28;19912;-60
2022/06/23 03:22:20;;;;;;;;;;;563.30;2432.00;;;;;;5072810;28;19915;-59
2022/06/23 03:25:09;;;;;;;;;;;563.30;2432.00;;;;;;5073001;28;19905;-60
2022/06/23 03:27:45;;;;;;;;;;;563.30;2432.00;;;;;;5072565;28;20046;-58
2022/06/23 03:30:20;;;;;;;;;;;563.20;2432.00;;;;;;5072730;28;19969;-58
2022/06/23 03:32:48;;;;;;;;;;;563.30;2432.00;;;;;;5072774;28;20288;-58
2022/06/23 03:35:22;;;;;;;;;;;563.20;2432.00;;;;;;5072310;28;19970;-62
2022/06/23 03:37:54;;;;;;;;;;;563.20;2432.00;;;;;;5054633;28;19908;-58
2022/06/23 03:43:25;;;;;;;;;;;563.20;2432.00;;;;;;5072726;28;19929;-58
2022/06/23 03:45:53;;;;;;;;;;;538.50;2406.40;;;;;;5072515;28;19927;-58
2022/06/23 03:48:19;;;;;;;;;;;563.30;2432.00;;;;;;5072515;28;19904;-58
2022/06/23 03:50:53;;;;;;;;;;;563.30;2432.00;;;;;;5072403;28;19919;-58
2022/06/23 03:53:23;;;;;;;;;;;563.30;2432.00;;;;;;5072132;28;19905;-61
2022/06/23 03:55:51;;;;;;;;;;;563.30;2432.00;;;;;;5072499;28;19909;-57
2022/06/23 03:58:19;;;;;;;;;;;563.30;2432.00;;;;;;5071872;28;19908;-58
2022/06/23 04:01:04;;;;;;;;;;;563.30;2432.00;;;;;;5072509;28;20007;-57
2022/06/23 04:03:35;;;;;;;;;;;563.30;2432.00;;;;;;4990621;28;20045;-58
2022/06/23 04:06:30;;;;;;;;;;;563.50;2432.00;;;;;;4990549;28;19912;-60
2022/06/23 04:09:14;;;;;;;;;;;563.50;2432.00;;;;;;4951962;28;19906;-59
2022/06/23 04:11:45;;;;;;;;;;;563.60;2432.00;;;;;;4951779;29;19913;-60
2022/06/23 04:14:23;;;;;;;;;;;563.70;2432.00;;;;;;4951702;28;19921;-58
2022/06/23 04:16:52;;;;;;;;;;;563.70;2432.00;;;;;;4951934;28;20250;-60
2022/06/23 04:19:23;;;;;;;;;;;563.60;2432.00;;;;;;4951720;28;20350;-59
2022/06/23 04:21:57;;;;;;;;;;;563.70;2432.00;;;;;;4951717;28;20008;-58
2022/06/23 04:24:22;;;;;;;;;;;563.70;2432.00;;;;;;4951811;29;19913;-58
2022/06/23 04:26:51;;;;;;;;;;;563.70;2432.00;;;;;;4951620;29;19911;-58
2022/06/23 04:29:23;;;;;;;;;;;563.60;2432.00;;;;;;4951672;29;19915;-60
2022/06/23 04:31:55;;;;;;;;;;;563.60;2432.00;;;;;;4951550;28;19911;-59
2022/06/23 04:34:29;;;;;;;;;;;563.70;2432.00;;;;;;4951315;29;20366;-59
2022/06/23 04:36:55;;;;;;;;;;;563.70;2432.00;;;;;;4951550;29;19907;-57
2022/06/23 04:39:29;;;;;;;;;;;563.80;2432.00;;;;;;4951407;29;19906;-59
2022/06/23 04:42:00;;;;;;;;;;;563.90;2432.00;;;;;;4990217;28;19976;-60
2022/06/23 04:44:31;;;;;;;;;;;564.00;2432.00;;;;;;5000831;28;19905;-58
2022/06/23 04:46:59;;;;;;;;;;;564.00;2432.00;;;;;;5070313;28;19999;-60
2022/06/23 04:49:28;;;;;;;;;;;588.80;2432.00;;;;;;5071468;28;19911;-60
2022/06/23 04:52:12;;;;;;;;;;;589.30;2432.00;;;;;;5071226;28;19912;-58
2022/06/23 04:54:40;;;;;;;;;;;640.00;2432.00;;;;;;5070993;28;19934;-59
2022/06/23 04:57:09;;;;;;;;;;;666.20;2432.00;;;;;;5071090;28;19968;-57
2022/06/23 04:59:38;;;;;;;;;;;691.60;2432.00;;;;;;5070889;28;20420;-58
2022/06/23 05:02:27;;;;;;;;;;;717.00;2406.40;;;;;;5071228;28;20358;-58
2022/06/23 05:04:57;;;;;;;;;;;691.40;2432.00;;;;;;4989630;28;20348;-58
2022/06/23 05:07:26;;;;;;;;;;;666.50;2432.00;;;;;;4989442;28;19906;-58
2022/06/23 05:09:54;;;;;;;;;;;666.50;2432.00;;;;;;4989792;28;19910;-59
2022/06/23 05:12:40;;;;;;;;;;;666.10;2432.00;;;;;;4989675;28;19944;-60
2022/06/23 05:15:12;;;;;;;;;;;717.70;2406.40;;;;;;4989202;28;20380;-59
2022/06/23 05:17:45;;;;;;;;;;;793.60;2022.40;;;;;;4989265;28;19917;-59
2022/06/23 05:20:17;;;;;;;;;;;742.80;2099.20;;;;;;4989282;28;20012;-58
2022/06/23 05:22:45;;;;;;;;;;;717.10;2227.20;;;;;;4989460;28;19933;-60
2022/06/23 05:25:29;;;;;;;;;;;691.80;2304.00;;;;;;4989255;28;20392;-59
2022/06/23 05:27:55;;;;;;;;;;;666.50;2432.00;;;;;;4989237;28;19910;-59
2022/06/23 05:30:29;;;;;;;;;;;665.70;2432.00;;;;;;4989114;28;20352;-58
2022/06/23 05:32:54;;;;;;;;;;;640.90;2432.00;;;;;;4989450;28;19913;-58
2022/06/23 05:35:31;;;;;;;;;;;640.70;2432.00;;;;;;4989016;28;19917;-58
2022/06/23 05:37:57;;;;;;;;;;;640.60;2432.00;;;;;;4989012;28;19952;-60
2022/06/23 05:40:23;;;;;;;;;;;640.80;2432.00;;;;;;4989116;28;19950;-59
2022/06/23 05:42:51;;;;;;;;;;;666.20;2432.00;;;;;;5061383;28;19994;-61
2022/06/23 05:45:26;;;;;;;;;;;691.40;2432.00;;;;;;5070195;28;20274;-60
2022/06/23 05:47:53;;;;;;;;;;;691.70;2406.40;;;;;;5070567;28;19904;-61
2022/06/23 05:50:25;;;;;;;;;;;793.90;2022.40;;;;;;5070133;28;20351;-61
2022/06/23 05:53:06;;;;;;;;;;;845.20;1740.80;;;;;;5070164;28;19911;-59
2022/06/23 05:55:35;;;;;;;;;;;921.60;1536.00;;;;;;5070115;28;20014;-60
2022/06/23 05:58:17;;;;;;;;;;;947.80;1408.00;;;;;;5070173;28;20324;-58
2022/06/23 06:00:46;;;;;;;;;;;999.10;1305.60;;;;;;5074474;28;19916;-60
2022/06/23 06:03:23;;;;;;;;;;;1024.90;1228.80;;;;;;5074401;28;19991;-60
2022/06/23 06:05:51;;;;;;;;;;;1050.00;1228.80;;;;;;5074292;28;19904;-61
2022/06/23 06:08:16;;;;;;;;;;;1075.60;1177.60;;;;;;5074240;28;19905;-61
2022/06/23 06:10:42;;;;;;;;;;;1075.60;1177.60;;;;;;5074376;28;19916;-59
2022/06/23 06:13:13;;;;;;;;;;;1101.40;1152.00;;;;;;5074290;28;20050;-61
2022/06/23 06:15:39;;;;;;;;;;;1126.70;1126.40;;;;;;5074022;28;19916;-60
2022/06/23 06:18:14;;;;;;;;;;;1101.00;1126.40;;;;;;5074078;28;19905;-60
2022/06/23 06:20:39;;;;;;;;;;;1076.10;1100.80;;;;;;5074136;28;20282;-61
2022/06/23 06:23:11;;;;;;;;;;;1152.20;1024.00;;;;;;5074259;28;19904;-59
2022/06/23 06:25:39;;;;;;;;;;;1152.50;1024.00;;;;;;5074024;28;19904;-60
2022/06/23 06:28:13;;;;;;;;;;;1152.10;1024.00;;;;;;5073989;28;19915;-61
2022/06/23 06:30:41;;;;;;;;;;;1075.20;1126.40;;;;;;5073835;28;20329;-58
2022/06/23 06:33:09;;;;;;;;;;;999.00;1228.80;;;;;;5073916;28;19909;-62
2022/06/23 06:35:41;;;;;;;;;;;973.50;1254.40;;;;;;5073854;28;19947;-57
2022/06/23 06:38:14;;;;;;;;;;;1050.10;1152.00;;;;;;5074073;28;20005;-57
2022/06/23 06:40:42;;;;;;;;;;;998.60;1228.80;;;;;;5073680;28;20008;-59
2022/06/23 06:43:19;;;;;;;;;;;922.00;1382.40;;;;;;5073636;28;19905;-56
2022/06/23 06:45:45;;;;;;;;;;;870.40;1459.20;;;;;;5073778;28;19911;-57
2022/06/23 06:48:18;;;;;;;;;;;845.20;1536.00;;;;;;5073476;28;20346;-56
2022/06/23 06:50:49;;;;;;;;;;;845.40;1510.40;;;;;;5073538;28;20408;-59
2022/06/23 06:53:27;;;;;;;;;;;820.10;1536.00;;;;;;5073673;28;19904;-57
2022/06/23 06:55:55;;;;;;;;;;;819.30;1587.20;;;;;;5073396;28;19912;-57
2022/06/23 06:58:20;;;;;;;;;;;819.20;1587.20;;;;;;5073113;28;19913;-57
2022/06/23 07:00:50;;;;;;;;;;;794.40;1612.80;;;;;;5073516;28;19966;-59
2022/06/23 07:03:17;;;;;;;;;;;794.00;1664.00;;;;;;5073627;28;20274;-58
2022/06/23 07:05:48;;;;;;;;;;;793.90;1689.60;;;;;;5073375;28;19908;-56
2022/06/23 07:08:16;;;;;;;;;;;793.90;1689.60;;;;;;5073288;28;19905;-58
2022/06/23 07:10:42;;;;;;;;;;;793.90;1715.20;;;;;;5072370;28;19943;-59
2022/06/23 07:13:11;;;;;;;;;;;794.00;1689.60;;;;;;5073073;28;20350;-56
2022/06/23 07:15:49;;;;;;;;;;;793.70;1689.60;;;;;;5073108;28;19912;-58
2022/06/23 07:18:21;;;;;;;;;;;794.00;1689.60;;;;;;5073321;28;20374;-57
2022/06/23 07:20:50;;;;;;;;;;;768.50;1689.60;;;;;;5073057;28;19971;-57
2022/06/23 07:23:19;;;;;;;;;;;768.50;1715.20;;;;;;5072942;28;19912;-58
2022/06/23 07:25:47;;;;;;;;;;;768.90;1715.20;;;;;;5072495;28;19908;-58
2022/06/23 07:28:18;;;;;;;;;;;794.00;1689.60;;;;;;5072799;28;20389;-58
2022/06/23 07:30:52;;;;;;;;;;;768.90;1715.20;;;;;;5072708;28;20049;-58
2022/06/23 07:33:18;;;;;;;;;;;794.00;1689.60;;;;;;5072283;28;19912;-56
2022/06/23 07:35:53;;;;;;;;;;;794.00;1689.60;;;;;;5072256;28;19935;-58
2022/06/23 07:38:22;;;;;;;;;;;819.40;1664.00;;;;;;5068027;28;19908;-56
2022/06/23 07:40:47;;;;;;;;;;;794.40;1664.00;;;;;;5072199;28;19951;-59
2022/06/23 07:43:36;;;;;;;;;;;844.80;1612.80;;;;;;5072279;28;19943;-58
2022/06/23 07:46:02;;;;;;;;;;;819.40;1664.00;;;;;;5070425;28;19904;-59
2022/06/23 07:48:29;;;;;;;;;;;794.40;1740.80;;;;;;5071810;28;20461;-59
2022/06/23 07:50:56;;;;;;;;;;;768.20;1843.20;;;;;;5072344;28;19995;-57
2022/06/23 07:53:24;;;;;;;;;;;768.40;1843.20;;;;;;5072071;28;19905;-56
2022/06/23 07:55:49;;;;;;;;;;;743.30;1894.40;;;;;;5072162;28;19908;-59
2022/06/23 07:58:18;;;;;;;;;;;743.00;1920.00;;;;;;5072013;28;19909;-60
2022/06/23 08:00:45;;;;;;;;;;;742.90;1945.60;;;;;;5070909;28;20011;-58
2022/06/23 08:03:42;;;;;;;;;;;742.70;1971.20;;;;;;5070554;28;19908;-60
2022/06/23 08:06:10;;;;;;;;;;;742.50;1996.80;;;;;;4988900;28;19941;-58
2022/06/23 08:08:38;;;;;;;;;;;742.80;1945.60;;;;;;4987084;28;20328;-59
2022/06/23 08:13:55;;;;;;;;;;;742.80;2022.40;;;;;;4988937;28;19917;-59
2022/06/23 08:19:09;;;;;;;;;;;742.90;1996.80;;;;;;4991056;28;19952;-61
2022/06/23 08:21:53;;;;;;;;;;;717.30;2048.00;;;;;;4990339;28;19912;-59
2022/06/23 08:24:26;;;;;;;;;;;717.30;2073.60;;;;;;4990421;28;19912;-60
2022/06/23 08:26:55;;;;;;;;;;;716.80;2150.40;;;;;;4990321;28;19960;-61
2022/06/23 08:29:24;;;;;;;;;;;716.90;2176.00;;;;;;4990290;28;20314;-58
2022/06/23 08:31:50;;;;;;;;;;;717.00;2201.60;;;;;;4990415;28;19906;-60
2022/06/23 08:34:15;;;;;;;;;;;716.80;2252.80;;;;;;4989931;28;19940;-58
2022/06/23 08:36:42;;;;;;;;;;;716.80;2252.80;;;;;;4989899;28;19913;-60
2022/06/23 08:39:12;;;;;;;;;;;691.70;2355.20;;;;;;4990038;28;19914;-58
2022/06/23 08:41:41;;;;;;;;;;;691.70;2355.20;;;;;;5018444;28;20266;-58
2022/06/23 08:44:25;;;;;;;;;;;691.40;2432.00;;;;;;5051372;28;20358;-58
2022/06/23 08:46:57;;;;;;;;;;;691.30;2432.00;;;;;;5051471;28;20305;-60
2022/06/23 08:49:49;;;;;;;;;;;691.20;2432.00;;;;;;5051334;28;20001;-59
2022/06/23 08:52:19;;;;;;;;;;;665.80;2432.00;;;;;;5027534;28;20430;-58
2022/06/23 08:54:49;;;;;;;;;;;640.70;2432.00;;;;;;5050958;28;20002;-60
2022/06/23 08:57:30;;;;;;;;;;;640.50;2432.00;;;;;;5051033;28;19909;-61
2022/06/23 09:00:05;;;;;;;;;;;640.20;2432.00;;;;;;5050999;28;20007;-61
2022/06/23 09:02:35;;;;;;;;;;;640.00;2432.00;;;;;;5051146;28;19912;-61
2022/06/23 09:05:04;;;;;;;;;;;615.10;2432.00;;;;;;5051022;28;19998;-61
2022/06/23 09:07:48;;;;;;;;;;;615.30;2432.00;;;;;;5050820;28;19986;-59
2022/06/23 09:10:14;;;;;;;;;;;640.10;2432.00;;;;;;5050912;28;19905;-58
2022/06/23 09:12:48;;;;;;;;;;;665.70;2432.00;;;;;;5050893;28;19912;-60
2022/06/23 09:15:22;;;;;;;;;;;665.70;2432.00;;;;;;5051032;28;19978;-61
2022/06/23 09:18:00;;;;;;;;;;;640.90;2432.00;;;;;;5050867;28;20021;-58
2022/06/23 09:20:43;;;;;;;;;;;666.10;2432.00;;;;;;5050837;28;20271;-60
2022/06/23 09:23:28;;;;;;;;;;;666.30;2432.00;;;;;;5050704;28;20331;-59
2022/06/23 09:26:02;;;;;;;;;;;665.60;2432.00;;;;;;5051059;28;19983;-61
2022/06/23 09:28:33;;;;;;;;;;;640.70;2432.00;;;;;;5050542;28;19908;-61
2022/06/23 09:31:02;;;;;;;;;;;665.90;2432.00;;;;;;5050479;28;19916;-58
2022/06/23 09:33:48;;;;;;;;;;;640.70;2432.00;;;;;;5049980;28;19911;-61
2022/06/23 09:36:27;;;;;;;;;;;666.00;2432.00;;;;;;5050565;28;19909;-61
2022/06/23 09:39:08;;;;;;;;;;;665.80;2432.00;;;;;;5050753;28;19966;-60
2022/06/23 09:41:40;;;;;;;;;;;640.60;2432.00;;;;;;5050570;28;20350;-60
2022/06/23 09:44:24;;;;;;;;;;;640.60;2432.00;;;;;;5050490;28;20321;-61
2022/06/23 09:46:58;;;;;;;;;;;640.60;2432.00;;;;;;5050388;28;19911;-59
2022/06/23 09:49:30;;;;;;;;;;;640.40;2432.00;;;;;;5050418;28;19911;-59
2022/06/23 09:52:05;;;;;;;;;;;640.40;2432.00;;;;;;5050253;28;19950;-60
2022/06/23 09:54:49;;;;;;;;;;;640.20;2432.00;;;;;;5050031;28;19967;-61
2022/06/23 09:57:14;;;;;;;;;;;640.20;2432.00;;;;;;5050359;28;19908;-61
2022/06/23 09:59:46;;;;;;;;;;;640.20;2432.00;;;;;;5050102;28;19927;-61
2022/06/23 10:02:30;;;;;;;;;;;640.30;2432.00;;;;;;5050242;28;19951;-61
2022/06/23 10:05:13;;;;;;;;;;;640.20;2432.00;;;;;;5050614;28;20359;-58
2022/06/23 10:08:02;;;;;;;;;;;640.10;2432.00;;;;;;5050255;28;19905;-57
2022/06/23 10:10:30;;;;;;;;;;;640.10;2432.00;;;;;;5049881;28;20359;-58
2022/06/23 10:13:15;;;;;;;;;;;615.30;2432.00;;;;;;5050369;28;19912;-61
2022/06/23 10:15:40;;;;;;;;;;;640.10;2432.00;;;;;;5049961;28;19913;-60
2022/06/23 10:18:15;;;;;;;;;;;640.10;2432.00;;;;;;5050204;28;19992;-58
2022/06/23 10:20:45;;;;;;;;;;;615.30;2432.00;;;;;;5050103;28;19905;-61
2022/06/23 10:23:20;;;;;;;;;;;640.00;2432.00;;;;;;5049974;28;20393;-60
2022/06/23 10:26:05;;;;;;;;;;;640.00;2432.00;;;;;;5050156;28;19912;-61
2022/06/23 10:28:40;;;;;;;;;;;615.30;2432.00;;;;;;5049785;28;20343;-57
2022/06/23 10:31:09;;;;;;;;;;;615.20;2432.00;;;;;;5050177;28;19909;-61
2022/06/23 10:33:41;;;;;;;;;;;614.80;2432.00;;;;;;5049917;28;19995;-61
2022/06/23 10:36:06;;;;;;;;;;;614.80;2432.00;;;;;;5050040;28;19940;-58
2022/06/23 10:38:45;;;;;;;;;;;614.60;2432.00;;;;;;5049790;28;19952;-57
2022/06/23 10:41:30;;;;;;;;;;;615.00;2432.00;;;;;;5049994;28;20080;-58
2022/06/23 10:44:01;;;;;;;;;;;615.20;2432.00;;;;;;5049991;28;20006;-60
2022/06/23 10:46:48;;;;;;;;;;;615.20;2432.00;;;;;;5052338;28;19905;-58
2022/06/23 10:49:29;;;;;;;;;;;614.90;2432.00;;;;;;5053403;28;20314;-61
2022/06/23 10:52:13;;;;;;;;;;;615.00;2432.00;;;;;;5053731;28;20270;-60
2022/06/23 10:54:38;;;;;;;;;;;615.10;2432.00;;;;;;5053376;28;19916;-58
2022/06/23 10:57:16;;;;;;;;;;;614.80;2432.00;;;;;;5053340;28;20246;-59
2022/06/23 10:59:44;;;;;;;;;;;614.80;2432.00;;;;;;5053093;28;19927;-61
2022/06/23 11:02:30;;;;;;;;;;;614.90;2432.00;;;;;;5053218;28;19904;-61
2022/06/23 11:05:08;;;;;;;;;;;614.80;2432.00;;;;;;5053179;28;19905;-61
2022/06/23 11:07:39;;;;;;;;;;;614.90;2432.00;;;;;;5053412;28;20274;-60
2022/06/23 11:10:18;;;;;;;;;;;614.90;2432.00;;;;;;5053391;28;19912;-58
2022/06/23 11:13:03;;;;;;;;;;;615.20;2432.00;;;;;;5053539;28;19904;-61
2022/06/23 11:15:34;;;;;;;;;;;640.00;2432.00;;;;;;5053037;28;19978;-58
2022/06/23 11:18:18;;;;;;;;;;;640.00;2432.00;;;;;;5053188;28;19912;-59
2022/06/23 11:21:04;;;;;;;;;;;640.00;2432.00;;;;;;5053213;28;19999;-61
2022/06/23 11:23:45;;;;;;;;;;;615.20;2432.00;;;;;;5052864;28;20003;-60
2022/06/23 11:26:31;;;;;;;;;;;615.10;2432.00;;;;;;5052706;28;19909;-58
2022/06/23 11:29:09;;;;;;;;;;;615.30;2432.00;;;;;;5052571;28;19923;-58
2022/06/23 11:31:40;;;;;;;;;;;640.40;2432.00;;;;;;5053003;28;20294;-61
2022/06/23 11:34:11;;;;;;;;;;;640.50;2432.00;;;;;;5052751;28;19909;-57
2022/06/23 11:36:39;;;;;;;;;;;640.50;2432.00;;;;;;5052617;28;19909;-59
2022/06/23 11:39:14;;;;;;;;;;;640.60;2432.00;;;;;;5052764;28;19911;-61
2022/06/23 11:41:45;;;;;;;;;;;640.90;2432.00;;;;;;5052399;28;19904;-58
2022/06/23 11:44:10;;;;;;;;;;;666.00;2432.00;;;;;;5052559;28;19935;-58
2022/06/23 11:46:38;;;;;;;;;;;666.20;2432.00;;;;;;5052603;28;19908;-61
2022/06/23 11:49:09;;;;;;;;;;;666.30;2432.00;;;;;;5052707;28;19917;-61
2022/06/23 11:51:55;;;;;;;;;;;666.50;2432.00;;;;;;5052415;28;19974;-57
2022/06/23 11:54:34;;;;;;;;;;;666.30;2432.00;;;;;;5052098;28;20344;-60
2022/06/23 11:57:03;;;;;;;;;;;666.40;2432.00;;;;;;5051544;28;20020;-60
2022/06/23 11:59:31;;;;;;;;;;;666.40;2432.00;;;;;;5051982;28;20015;-57
2022/06/23 12:01:57;;;;;;;;;;;666.30;2432.00;;;;;;5052030;28;20291;-58
2022/06/23 12:04:39;;;;;;;;;;;666.20;2432.00;;;;;;5052437;28;19904;-57
2022/06/23 12:07:23;;;;;;;;;;;666.40;2432.00;;;;;;5052243;28;19905;-58
2022/06/23 12:09:48;;;;;;;;;;;691.40;2432.00;;;;;;5052293;28;20000;-58
2022/06/23 12:12:14;;;;;;;;;;;691.50;2432.00;;;;;;5052321;28;19962;-61
2022/06/23 12:14:40;;;;;;;;;;;691.50;2432.00;;;;;;5052022;28;19959;-58
2022/06/23 12:17:05;;;;;;;;;;;691.60;2432.00;;;;;;5052079;28;19904;-60
2022/06/23 12:19:57;;;;;;;;;;;691.50;2432.00;;;;;;5051779;28;20393;-60
2022/06/23 12:22:32;;;;;;;;;;;691.30;2432.00;;;;;;5028429;28;19905;-57
2022/06/23 12:25:02;;;;;;;;;;;691.20;2432.00;;;;;;5051817;28;19905;-59
2022/06/23 12:27:31;;;;;;;;;;;691.30;2432.00;;;;;;5051560;28;20330;-61
2022/06/23 12:30:07;;;;;;;;;;;666.50;2432.00;;;;;;5051568;28;20335;-59
2022/06/23 12:32:36;;;;;;;;;;;691.20;2432.00;;;;;;5051847;28;20059;-60
2022/06/23 12:35:10;;;;;;;;;;;691.30;2432.00;;;;;;5051369;28;20256;-57
2022/06/23 12:37:40;;;;;;;;;;;691.40;2432.00;;;;;;5051575;28;20316;-61
2022/06/23 12:40:19;;;;;;;;;;;691.80;2432.00;;;;;;5051579;28;19904;-60
2022/06/23 12:42:50;;;;;;;;;;;691.90;2432.00;;;;;;5051466;28;20408;-59
2022/06/23 12:45:24;;;;;;;;;;;692.10;2432.00;;;;;;5051687;28;19927;-59
2022/06/23 12:48:05;;;;;;;;;;;716.90;2432.00;;;;;;5051299;28;19912;-62
2022/06/23 12:50:54;;;;;;;;;;;717.20;2432.00;;;;;;5051184;28;19958;-61
2022/06/23 12:53:26;;;;;;;;;;;716.90;2432.00;;;;;;5042754;28;19904;-61
2022/06/23 12:56:10;;;;;;;;;;;717.00;2432.00;;;;;;5050949;28;20341;-61
2022/06/23 12:58:43;;;;;;;;;;;716.90;2432.00;;;;;;5050935;28;19908;-61
2022/06/23 13:01:17;;;;;;;;;;;716.90;2432.00;;;;;;5050860;28;19956;-62
2022/06/23 13:03:48;;;;;;;;;;;716.90;2432.00;;;;;;5048440;28;19904;-61
2022/06/23 13:06:29;;;;;;;;;;;717.00;2432.00;;;;;;5049492;28;19909;-61
2022/06/23 13:08:58;;;;;;;;;;;717.40;2432.00;;;;;;5048756;28;20367;-61
2022/06/23 13:11:39;;;;;;;;;;;717.40;2432.00;;;;;;5049385;28;19905;-61
2022/06/23 13:14:13;;;;;;;;;;;717.60;2432.00;;;;;;5049376;28;19919;-61
2022/06/23 13:16:42;;;;;;;;;;;717.40;2406.40;;;;;;5048728;28;19919;-61
2022/06/23 13:19:16;;;;;;;;;;;717.60;2432.00;;;;;;5049159;28;19954;-62
2022/06/23 13:21:42;;;;;;;;;;;742.50;2355.20;;;;;;5049369;28;19905;-61
2022/06/23 13:24:10;;;;;;;;;;;717.70;2304.00;;;;;;5049117;28;20362;-61
2022/06/23 13:26:44;;;;;;;;;;;717.60;2278.40;;;;;;5049119;28;19908;-61
2022/06/23 13:29:12;;;;;;;;;;;717.20;2355.20;;;;;;5048405;28;19908;-61
2022/06/23 13:31:47;;;;;;;;;;;717.00;2329.60;;;;;;5048904;28;20260;-62
2022/06/23 13:34:12;;;;;;;;;;;716.80;2329.60;;;;;;5048866;28;19944;-60
2022/06/23 13:36:41;;;;;;;;;;;692.10;2304.00;;;;;;5030941;28;19998;-62
2022/06/23 13:39:14;;;;;;;;;;;691.30;2329.60;;;;;;5048794;28;20007;-60
2022/06/23 13:41:44;;;;;;;;;;;691.40;2355.20;;;;;;5048247;28;19909;-61
2022/06/23 13:44:18;;;;;;;;;;;691.60;2380.80;;;;;;5048649;28;19904;-61
2022/06/23 13:46:55;;;;;;;;;;;691.60;2380.80;;;;;;5049022;28;19909;-61
2022/06/23 13:49:32;;;;;;;;;;;691.40;2355.20;;;;;;5048644;28;19940;-61
2022/06/23 13:52:03;;;;;;;;;;;691.70;2355.20;;;;;;5048595;28;19908;-62
2022/06/23 13:54:29;;;;;;;;;;;691.20;2406.40;;;;;;5048347;28;19923;-63
2022/06/23 13:56:54;;;;;;;;;;;691.40;2406.40;;;;;;5048649;28;20260;-63
2022/06/23 13:59:42;;;;;;;;;;;691.70;2406.40;;;;;;5048363;28;20358;-64
2022/06/23 14:02:11;;;;;;;;;;;691.80;2406.40;;;;;;5048542;28;19917;-63
2022/06/23 14:04:46;;;;;;;;;;;692.00;2355.20;;;;;;5048778;28;20186;-63
2022/06/23 14:07:19;;;;;;;;;;;692.00;2304.00;;;;;;5047890;28;19905;-63
2022/06/23 14:09:51;;;;;;;;;;;692.10;2278.40;;;;;;5048973;28;19905;-64
2022/06/23 14:12:20;;;;;;;;;;;716.80;2329.60;;;;;;5048511;28;19951;-63
2022/06/23 14:14:50;;;;;;;;;;;716.90;2329.60;;;;;;5048657;28;19917;-62
2022/06/23 14:17:16;;;;;;;;;;;692.10;2329.60;;;;;;5048904;28;20285;-62
2022/06/23 14:19:57;;;;;;;;;;;692.10;2355.20;;;;;;5050645;28;19993;-63
2022/06/23 14:22:26;;;;;;;;;;;692.10;2304.00;;;;;;5052308;28;19904;-63